createdAt,value
2023-02-06T00:01:58.533Z,8.17
2023-02-06T00:07:00.115Z,6.43
2023-02-06T00:12:01.602Z,7.13
2023-02-06T00:17:03.025Z,7.37
2023-02-06T00:22:04.495Z,6.67
2023-02-06T00:27:06.150Z,6.40
2023-02-06T00:32:07.636Z,5.83
2023-02-06T00:37:09.082Z,7.53
2023-02-06T00:42:10.566Z,5.97
2023-02-06T00:47:12.059Z,6.90
2023-02-06T00:52:13.579Z,6.57
2023-02-06T00:57:15.057Z,5.97
2023-02-06T01:02:16.560Z,6.80
2023-02-06T01:07:17.966Z,6.67
2023-02-06T01:12:19.443Z,7.00
2023-02-06T01:17:20.952Z,6.00
2023-02-06T01:22:22.447Z,5.40
2023-02-06T01:27:23.947Z,6.37
2023-02-06T01:32:25.562Z,6.10
2023-02-06T01:37:29.155Z,5.70
2023-02-06T01:42:33.335Z,4.00
2023-02-06T01:47:34.757Z,4.88
2023-02-06T01:52:36.298Z,5.77
2023-02-06T01:57:39.147Z,4.10
2023-02-06T02:02:45.250Z,4.30
2023-02-06T02:08:04.457Z,4.13
2023-02-06T02:13:06.089Z,3.73
2023-02-06T02:18:22.999Z,3.53
2023-02-06T02:23:44.391Z,4.23
2023-02-06T02:28:45.899Z,3.30
2023-02-06T02:33:53.162Z,4.10
2023-02-06T02:39:17.853Z,4.07
2023-02-06T02:44:31.116Z,4.57
2023-02-06T02:49:37.028Z,6.57
2023-02-06T02:54:38.482Z,4.70
2023-02-06T02:59:44.759Z,4.20
2023-02-06T03:04:51.308Z,5.07
2023-02-06T03:10:03.455Z,5.20
2023-02-06T03:15:18.226Z,5.23
2023-02-06T03:20:20.802Z,5.23
2023-02-06T03:25:33.231Z,5.03
2023-02-06T03:30:35.570Z,5.03
2023-02-06T03:35:39.322Z,5.60
2023-02-06T03:40:43.262Z,5.57
2023-02-06T03:45:51.095Z,4.65
2023-02-06T03:50:56.151Z,4.80
2023-02-06T03:56:04.434Z,5.67
2023-02-06T04:01:07.877Z,6.07
2023-02-06T04:06:09.618Z,5.53
2023-02-06T04:11:11.299Z,4.43
2023-02-06T04:16:12.763Z,5.10
2023-02-06T04:21:14.240Z,5.90
2023-02-06T04:26:15.737Z,6.50
2023-02-06T04:31:17.197Z,4.80
2023-02-06T04:36:19.242Z,5.40
2023-02-06T04:41:20.771Z,5.83
2023-02-06T04:46:22.331Z,6.30
2023-02-06T04:51:23.821Z,4.60
2023-02-06T04:56:25.899Z,4.83
2023-02-06T05:01:27.424Z,4.07
2023-02-06T05:06:29.707Z,4.33
2023-02-06T05:11:31.423Z,4.97
2023-02-06T05:16:32.952Z,5.03
2023-02-06T05:21:34.407Z,4.50
2023-02-06T05:26:35.875Z,4.30
2023-02-06T05:31:37.509Z,3.97
2023-02-06T05:36:40.259Z,4.33
2023-02-06T05:41:41.707Z,6.03
2023-02-06T05:46:44.148Z,5.60
2023-02-06T05:51:46.102Z,4.00
2023-02-06T05:56:47.558Z,4.47
2023-02-06T06:01:48.990Z,5.97
2023-02-06T06:06:50.514Z,5.63
2023-02-06T06:11:51.967Z,5.67
2023-02-06T06:16:53.418Z,5.70
2023-02-06T06:21:56.611Z,5.23
2023-02-06T06:26:59.939Z,5.30
2023-02-06T06:32:01.376Z,4.73
2023-02-06T06:37:02.931Z,5.50
2023-02-06T06:42:04.529Z,5.73
2023-02-06T06:47:06.069Z,5.77
2023-02-06T06:52:19.616Z,6.77
2023-02-06T06:57:25.763Z,5.73
2023-02-06T07:02:28.533Z,5.57
2023-02-06T07:07:30.243Z,7.00
2023-02-06T07:12:32.369Z,6.90
2023-02-06T07:17:33.823Z,7.47
2023-02-06T07:22:35.267Z,6.10
2023-02-06T07:27:36.708Z,7.83
2023-02-06T07:32:38.398Z,7.97
2023-02-06T07:37:39.819Z,7.23
2023-02-06T07:42:41.317Z,7.27
2023-02-06T07:47:43.822Z,7.00
2023-02-06T07:52:45.442Z,9.63
2023-02-06T07:57:46.868Z,9.77
2023-02-06T08:02:48.303Z,10.43
2023-02-06T08:07:51.635Z,9.60
2023-02-06T08:12:53.192Z,10.63
2023-02-06T08:17:54.642Z,9.83
2023-02-06T08:22:57.081Z,10.73
2023-02-06T08:27:58.721Z,10.93
2023-02-06T08:33:00.407Z,10.43
2023-02-06T08:38:02.078Z,10.27
2023-02-06T08:43:03.634Z,11.03
2023-02-06T08:48:05.289Z,11.87
2023-02-06T08:53:06.716Z,11.17
2023-02-06T08:58:08.247Z,9.50
2023-02-06T09:03:09.676Z,9.30
2023-02-06T09:08:11.099Z,9.00
2023-02-06T09:13:12.620Z,7.37
2023-02-06T09:18:14.040Z,7.80
2023-02-06T09:23:19.231Z,8.03
2023-02-06T09:28:20.795Z,6.80
2023-02-06T09:33:22.412Z,7.93
2023-02-06T09:38:23.921Z,7.47
2023-02-06T09:43:25.775Z,8.37
2023-02-06T09:48:30.504Z,8.50
2023-02-06T09:53:31.919Z,8.50
2023-02-06T09:58:43.032Z,7.23
2023-02-06T10:04:13.883Z,5.53
2023-02-06T10:09:30.305Z,6.90
2023-02-06T10:14:43.867Z,6.87
2023-02-06T10:19:54.370Z,7.03
2023-02-06T10:25:33.342Z,8.13
2023-02-06T10:31:01.195Z,7.83
2023-02-06T10:36:16.188Z,7.40
2023-02-06T10:41:25.478Z,6.83
2023-02-06T10:46:42.422Z,6.10
2023-02-06T10:51:49.086Z,6.63
2023-02-06T10:56:54.222Z,6.03
2023-02-06T11:02:11.722Z,11.67
2023-02-06T11:07:24.953Z,7.87
2023-02-06T11:12:35.570Z,8.63
2023-02-06T11:17:37.055Z,8.77
2023-02-06T11:22:51.110Z,9.30
2023-02-06T11:27:55.001Z,10.13
2023-02-06T11:33:04.656Z,9.17
2023-02-06T11:38:25.873Z,8.50
2023-02-06T11:43:41.141Z,8.20
2023-02-06T11:49:02.176Z,7.50
2023-02-06T11:54:04.238Z,22.53
2023-02-06T11:59:17.771Z,8.43
2023-02-06T12:04:25.913Z,8.27
2023-02-06T12:09:28.087Z,8.70
2023-02-06T12:14:37.029Z,7.83
2023-02-06T12:19:50.589Z,7.47
2023-02-06T12:24:55.196Z,8.00
2023-02-06T12:35:16.112Z,8.35
2023-02-06T12:40:57.334Z,8.53
2023-02-06T12:46:15.394Z,8.60
2023-02-06T12:51:27.459Z,10.17
2023-02-06T12:56:35.654Z,8.93
2023-02-06T13:02:16.960Z,11.67
2023-02-06T13:07:23.531Z,9.77
2023-02-06T13:12:27.343Z,7.43
2023-02-06T13:17:44.822Z,18.43
2023-02-06T13:23:08.872Z,8.70
2023-02-06T13:28:23.009Z,8.98
2023-02-06T13:33:27.033Z,7.28
2023-02-06T13:38:37.308Z,8.25
2023-02-06T13:43:51.279Z,7.97
2023-02-06T13:49:01.201Z,7.50
2023-02-06T13:54:30.699Z,8.30
2023-02-06T13:59:46.447Z,7.87
2023-02-06T14:04:48.508Z,7.67
2023-02-06T14:10:13.246Z,7.60
2023-02-06T14:15:34.976Z,7.70
2023-02-06T14:20:52.671Z,8.70
2023-02-06T14:26:24.548Z,9.87
2023-02-06T14:31:58.700Z,8.80
2023-02-06T14:37:27.940Z,10.70
2023-02-06T14:42:36.001Z,9.77
2023-02-06T14:47:42.430Z,9.67
2023-02-06T14:52:48.324Z,11.13
2023-02-06T14:57:49.806Z,10.17
2023-02-06T15:03:21.452Z,10.50
2023-02-06T15:08:22.979Z,10.93
2023-02-06T15:13:34.637Z,11.23
2023-02-06T15:18:36.622Z,12.60
2023-02-06T15:23:56.730Z,10.03
2023-02-06T15:29:04.639Z,10.97
2023-02-06T15:34:06.090Z,10.20
2023-02-06T15:39:09.541Z,10.03
2023-02-06T15:44:23.169Z,11.27
2023-02-06T15:49:40.098Z,11.17
2023-02-06T15:54:44.955Z,11.90
2023-02-06T15:59:46.634Z,11.50
2023-02-06T16:04:51.667Z,11.90
2023-02-06T16:10:08.418Z,10.40
2023-02-06T16:15:34.522Z,11.30
2023-02-06T16:20:42.772Z,12.50
2023-02-06T16:25:58.877Z,12.53
2023-02-06T16:31:05.366Z,15.33
2023-02-06T16:36:07.519Z,14.90
2023-02-06T16:41:30.711Z,13.00
2023-02-06T16:46:32.825Z,13.10
2023-02-06T16:51:34.498Z,16.73
2023-02-06T16:56:38.253Z,21.47
2023-02-06T17:01:39.865Z,25.33
2023-02-06T17:06:41.456Z,18.00
2023-02-06T17:11:42.946Z,13.93
2023-02-06T17:16:44.668Z,14.43
2023-02-06T17:21:46.427Z,13.77
2023-02-06T17:26:47.998Z,15.63
2023-02-06T17:31:49.573Z,15.97
2023-02-06T17:36:54.367Z,15.03
2023-02-06T17:41:55.803Z,15.67
2023-02-06T17:46:57.227Z,16.63
2023-02-06T17:51:58.709Z,17.07
2023-02-06T17:57:00.196Z,16.03
2023-02-06T18:02:01.888Z,18.23
2023-02-06T18:07:03.539Z,16.70
2023-02-06T18:12:05.116Z,16.40
2023-02-06T18:17:07.822Z,25.13
2023-02-06T18:22:11.621Z,16.60
2023-02-06T18:27:13.581Z,16.83
2023-02-06T18:32:15.056Z,19.47
2023-02-06T18:37:16.562Z,16.47
2023-02-06T18:42:36.728Z,18.47
2023-02-06T18:47:39.000Z,19.17
2023-02-06T18:52:40.454Z,17.80
2023-02-06T18:57:42.522Z,18.53
2023-02-06T19:02:44.001Z,19.47
2023-02-06T19:07:50.534Z,18.50
2023-02-06T19:12:51.986Z,18.37
2023-02-06T19:17:53.453Z,17.67
2023-02-06T19:22:56.757Z,19.27
2023-02-06T19:27:58.222Z,18.90
2023-02-06T19:32:59.762Z,19.83
2023-02-06T19:38:03.419Z,18.60
2023-02-06T19:43:04.938Z,17.37
2023-02-06T19:48:11.881Z,17.67
2023-02-06T19:53:15.611Z,17.30
2023-02-06T19:58:18.267Z,16.70
2023-02-06T20:03:19.762Z,16.93
2023-02-06T20:08:21.323Z,16.47
2023-02-06T20:13:23.013Z,16.77
2023-02-06T20:18:26.608Z,15.50
2023-02-06T20:23:28.252Z,14.70
2023-02-06T20:28:30.013Z,14.33
2023-02-06T20:33:32.667Z,15.27
2023-02-06T20:38:34.460Z,16.80
2023-02-06T20:43:37.094Z,16.17
2023-02-06T20:48:38.658Z,15.07
2023-02-06T20:53:40.819Z,14.20
2023-02-06T20:58:43.393Z,16.47
2023-02-06T21:03:46.458Z,14.87
2023-02-06T21:08:50.154Z,16.47
2023-02-06T21:13:51.603Z,16.27
2023-02-06T21:18:53.973Z,17.53
2023-02-06T21:23:55.831Z,18.53
2023-02-06T21:28:58.889Z,16.70
2023-02-06T21:34:11.103Z,19.13
2023-02-06T21:39:19.506Z,18.27
2023-02-06T21:44:23.876Z,15.67
2023-02-06T21:49:25.787Z,16.88
2023-02-06T21:54:29.294Z,17.97
2023-02-06T21:59:33.848Z,16.10
2023-02-06T22:04:36.699Z,18.27
2023-02-06T22:09:38.148Z,17.17
2023-02-06T22:14:39.624Z,15.07
2023-02-06T22:19:41.089Z,15.67
2023-02-06T22:24:44.373Z,15.47
2023-02-06T22:29:46.023Z,15.83
2023-02-06T22:34:47.616Z,16.00
2023-02-06T22:39:49.091Z,13.93
2023-02-06T22:44:50.972Z,15.33
2023-02-06T22:49:52.801Z,15.63
2023-02-06T22:54:54.340Z,14.33
2023-02-06T22:59:55.757Z,15.47
2023-02-06T23:04:57.194Z,19.23
2023-02-06T23:09:58.643Z,18.60
2023-02-06T23:15:00.147Z,14.23
2023-02-06T23:20:01.765Z,13.50
2023-02-06T23:25:03.742Z,13.23
2023-02-06T23:30:05.805Z,15.43
2023-02-06T23:35:07.769Z,15.00
2023-02-06T23:40:09.979Z,13.50
2023-02-06T23:45:11.411Z,13.77
2023-02-06T23:50:13.087Z,14.70
2023-02-06T23:55:15.673Z,14.87
